Time;durP1;ratioP1;P1;durP2;ratioP2;P2;SDS_P1;SDS_P2;PMS_P1;PMS_P2;Temp;Humidity;BMP_temperature;BMP_pressure;BME280_temperature;BME280_humidity;BME280_pressure;Samples;Min_cycle;Max_cycle;Signal;HPM_P1;HPM_P2
2021/05/28 00:02:18;;;;;;;52.75;31.73;;;;;;;;;;5075908;28;20016;-56
2021/05/28 00:04:44;;;;;;;45.10;29.25;;;;;;;;;;5075706;28;20024;-62
2021/05/28 00:07:10;;;;;;;48.28;31.75;;;;;;;;;;5075777;28;20111;-62
2021/05/28 00:09:36;;;;;;;22.30;13.82;;;;;;;;;;5077682;28;20028;-62
2021/05/28 00:12:03;;;;;;;35.25;21.17;;;;;;;;;;5078158;28;20033;-62
2021/05/28 00:14:29;;;;;;;17.70;9.45;;;;;;;;;;5077726;28;20056;-60
2021/05/28 00:16:58;;;;;;;45.65;24.90;;;;;;;;;;5075655;28;20460;-61
2021/05/28 00:19:24;;;;;;;31.48;17.70;;;;;;;;;;5075123;28;20125;-61
2021/05/28 00:21:50;;;;;;;57.10;31.50;;;;;;;;;;5075024;28;20025;-60
2021/05/28 00:24:16;;;;;;;52.22;29.73;;;;;;;;;;5075040;28;20055;-60
2021/05/28 00:26:42;;;;;;;48.00;27.35;;;;;;;;;;5075142;28;20529;-61
2021/05/28 00:29:08;;;;;;;13.32;7.43;;;;;;;;;;5075464;28;20028;-61
2021/05/28 00:31:34;;;;;;;34.92;21.98;;;;;;;;;;5074855;28;20035;-58
2021/05/28 00:34:00;;;;;;;34.38;22.17;;;;;;;;;;5074884;28;20035;-61
2021/05/28 00:36:27;;;;;;;34.63;20.98;;;;;;;;;;5074998;28;20035;-61
2021/05/28 00:38:53;;;;;;;29.73;18.58;;;;;;;;;;5074805;28;20021;-61
2021/05/28 00:41:19;;;;;;;18.38;11.25;;;;;;;;;;5074646;28;20024;-61
2021/05/28 00:43:45;;;;;;;87.93;55.35;;;;;;;;;;5074810;28;20091;-60
2021/05/28 00:46:11;;;;;;;28.45;15.95;;;;;;;;;;5074624;28;20029;-59
2021/05/28 00:48:38;;;;;;;60.63;33.90;;;;;;;;;;5074410;28;20012;-61
2021/05/28 00:51:04;;;;;;;26.38;14.77;;;;;;;;;;5074304;28;20424;-59
2021/05/28 00:53:31;;;;;;;31.00;16.95;;;;;;;;;;5074726;28;20044;-62
2021/05/28 00:55:58;;;;;;;84.65;50.53;;;;;;;;;;5074551;28;20028;-61
2021/05/28 00:58:24;;;;;;;34.10;19.48;;;;;;;;;;5074435;28;20025;-62
2021/05/28 01:00:50;;;;;;;41.22;22.20;;;;;;;;;;5074413;28;20059;-62
2021/05/28 01:03:17;;;;;;;16.75;7.63;;;;;;;;;;5074077;28;20029;-61
2021/05/28 01:05:43;;;;;;;45.15;25.88;;;;;;;;;;5074160;28;20021;-62
2021/05/28 01:08:09;;;;;;;28.77;15.88;;;;;;;;;;5074189;28;20039;-62
2021/05/28 01:10:35;;;;;;;17.73;9.77;;;;;;;;;;5074185;28;20040;-62
2021/05/28 01:13:08;;;;;;;11.63;5.35;;;;;;;;;;5074119;28;20020;-61
2021/05/28 01:15:34;;;;;;;18.45;10.13;;;;;;;;;;5074086;28;20487;-61
2021/05/28 01:18:00;;;;;;;27.50;15.52;;;;;;;;;;5073944;28;20029;-59
2021/05/28 01:20:26;;;;;;;17.17;8.05;;;;;;;;;;5073809;28;20056;-60
2021/05/28 01:22:53;;;;;;;56.72;33.58;;;;;;;;;;5073983;28;20475;-59
2021/05/28 01:25:20;;;;;;;30.50;16.17;;;;;;;;;;5073853;28;20028;-60
2021/05/28 01:27:47;;;;;;;20.00;9.60;;;;;;;;;;5073929;28;20028;-60
2021/05/28 01:30:13;;;;;;;16.95;9.05;;;;;;;;;;5073969;28;20377;-60
2021/05/28 01:32:40;;;;;;;36.80;21.60;;;;;;;;;;5073614;28;20047;-59
2021/05/28 01:35:07;;;;;;;38.03;19.77;;;;;;;;;;5073740;28;20036;-59
2021/05/28 01:37:35;;;;;;;36.83;19.08;;;;;;;;;;5073595;28;20029;-62
2021/05/28 01:40:01;;;;;;;26.13;13.07;;;;;;;;;;5073879;28;20031;-61
2021/05/28 01:42:27;;;;;;;35.75;21.55;;;;;;;;;;5073611;28;20052;-59
2021/05/28 01:44:53;;;;;;;38.42;21.70;;;;;;;;;;5073609;28;20039;-60
2021/05/28 01:47:20;;;;;;;51.47;27.95;;;;;;;;;;5073473;28;20016;-60
2021/05/28 01:49:46;;;;;;;68.25;40.35;;;;;;;;;;5073402;28;20029;-60
2021/05/28 01:52:15;;;;;;;43.30;22.27;;;;;;;;;;5073066;28;20056;-60
2021/05/28 01:54:41;;;;;;;30.48;17.35;;;;;;;;;;5073452;28;20036;-59
2021/05/28 01:57:08;;;;;;;23.35;14.32;;;;;;;;;;5072858;28;20135;-60
2021/05/28 01:59:34;;;;;;;52.47;28.23;;;;;;;;;;5073488;28;20552;-61
2021/05/28 02:02:00;;;;;;;34.10;18.38;;;;;;;;;;5073190;28;20373;-60
2021/05/28 02:04:27;;;;;;;23.83;12.98;;;;;;;;;;5073210;28;20020;-60
2021/05/28 02:06:54;;;;;;;30.67;16.52;;;;;;;;;;5073351;28;20028;-57
2021/05/28 02:09:20;;;;;;;15.32;7.43;;;;;;;;;;5073252;28;20021;-56
2021/05/28 02:11:46;;;;;;;10.15;6.20;;;;;;;;;;5073290;28;20406;-58
2021/05/28 02:14:13;;;;;;;14.48;8.18;;;;;;;;;;5073404;28;20020;-50
2021/05/28 02:16:44;;;;;;;17.02;8.73;;;;;;;;;;5073187;28;20100;-51
2021/05/28 02:19:10;;;;;;;18.65;7.25;;;;;;;;;;5073246;28;20050;-57
2021/05/28 02:21:37;;;;;;;9.57;4.32;;;;;;;;;;5073204;28;20040;-59
2021/05/28 02:24:03;;;;;;;15.10;5.65;;;;;;;;;;5073257;28;20078;-59
2021/05/28 02:26:29;;;;;;;9.30;3.17;;;;;;;;;;5073258;28;20103;-49
2021/05/28 02:28:58;;;;;;;11.32;4.10;;;;;;;;;;5073325;28;20032;-53
2021/05/28 02:31:24;;;;;;;12.40;4.22;;;;;;;;;;5073110;28;20036;-60
2021/05/28 02:33:50;;;;;;;3.60;2.25;;;;;;;;;;5073291;28;20013;-60
2021/05/28 02:36:16;;;;;;;6.43;3.22;;;;;;;;;;5073223;28;20503;-58
2021/05/28 02:38:42;;;;;;;7.13;2.40;;;;;;;;;;5073268;28;20052;-61
2021/05/28 02:41:08;;;;;;;8.00;2.90;;;;;;;;;;5073115;28;20086;-60
2021/05/28 02:43:36;;;;;;;10.05;2.38;;;;;;;;;;5073210;28;20526;-58
2021/05/28 02:46:02;;;;;;;7.25;2.22;;;;;;;;;;5072875;28;20029;-60
2021/05/28 02:48:28;;;;;;;5.18;2.55;;;;;;;;;;5072921;28;20027;-59
2021/05/28 02:50:54;;;;;;;2.58;1.40;;;;;;;;;;5072580;28;20037;-59
2021/05/28 02:53:20;;;;;;;3.88;1.55;;;;;;;;;;5073043;28;20444;-59
2021/05/28 02:55:46;;;;;;;3.90;1.70;;;;;;;;;;5072811;28;20020;-59
2021/05/28 02:58:12;;;;;;;6.38;1.70;;;;;;;;;;5072716;28;20115;-59
2021/05/28 03:00:39;;;;;;;3.47;1.40;;;;;;;;;;5072915;28;20033;-58
2021/05/28 03:03:05;;;;;;;2.65;1.83;;;;;;;;;;5072912;28;20104;-58
2021/05/28 03:05:31;;;;;;;4.72;1.33;;;;;;;;;;5073045;28;20025;-59
2021/05/28 03:07:57;;;;;;;4.35;1.20;;;;;;;;;;5073023;28;20035;-59
2021/05/28 03:10:23;;;;;;;3.97;1.00;;;;;;;;;;5076719;28;20032;-59
2021/05/28 03:12:52;;;;;;;1.88;1.08;;;;;;;;;;5076625;28;20032;-59
2021/05/28 03:15:18;;;;;;;3.13;1.40;;;;;;;;;;5076702;28;20038;-59
2021/05/28 03:17:46;;;;;;;2.17;1.38;;;;;;;;;;5058418;28;20128;-60
2021/05/28 03:20:19;;;;;;;16.40;10.18;;;;;;;;;;5076132;28;20037;-60
2021/05/28 03:22:45;;;;;;;4.85;2.33;;;;;;;;;;5076400;28;20025;-61
2021/05/28 03:25:15;;;;;;;13.38;7.55;;;;;;;;;;5076386;28;20067;-59
2021/05/28 03:27:41;;;;;;;20.60;11.98;;;;;;;;;;5076352;28;20021;-59
2021/05/28 03:30:09;;;;;;;16.92;10.38;;;;;;;;;;5076179;28;20423;-59
2021/05/28 03:32:35;;;;;;;14.32;7.45;;;;;;;;;;5076075;28;20032;-56
2021/05/28 03:35:01;;;;;;;24.27;13.45;;;;;;;;;;5076133;28;20103;-59
2021/05/28 03:37:28;;;;;;;20.83;10.77;;;;;;;;;;5076158;28;20049;-54
2021/05/28 03:39:54;;;;;;;23.38;11.32;;;;;;;;;;5075985;28;20070;-50
2021/05/28 03:42:20;;;;;;;8.85;5.93;;;;;;;;;;5075821;28;20099;-51
2021/05/28 03:44:47;;;;;;;19.23;9.35;;;;;;;;;;5075875;28;20028;-58
2021/05/28 03:47:13;;;;;;;18.92;12.65;;;;;;;;;;5075921;28;20017;-50
2021/05/28 03:49:41;;;;;;;8.98;6.30;;;;;;;;;;5075971;28;20025;-47
2021/05/28 03:52:07;;;;;;;44.45;27.67;;;;;;;;;;5075489;28;20071;-58
2021/05/28 03:54:33;;;;;;;15.90;9.00;;;;;;;;;;5076024;28;20099;-48
2021/05/28 03:57:02;;;;;;;11.00;6.57;;;;;;;;;;5075682;28;20028;-54
2021/05/28 03:59:28;;;;;;;19.67;11.05;;;;;;;;;;5075641;28;20103;-54
2021/05/28 04:01:56;;;;;;;17.23;11.40;;;;;;;;;;5075836;28;20044;-54
2021/05/28 04:04:23;;;;;;;6.82;4.00;;;;;;;;;;5075420;28;20507;-56
2021/05/28 04:06:49;;;;;;;28.90;15.57;;;;;;;;;;5075448;28;20555;-53
2021/05/28 04:09:15;;;;;;;42.95;22.45;;;;;;;;;;5075298;28;20017;-57
2021/05/28 04:11:41;;;;;;;30.45;14.80;;;;;;;;;;5075416;28;20481;-56
2021/05/28 04:14:07;;;;;;;13.82;6.22;;;;;;;;;;5075454;28;20028;-56
2021/05/28 04:16:33;;;;;;;6.78;4.53;;;;;;;;;;5075165;28;20464;-57
2021/05/28 04:18:59;;;;;;;15.75;7.50;;;;;;;;;;5075076;28;20063;-57
2021/05/28 04:21:28;;;;;;;14.45;6.35;;;;;;;;;;5075160;28;20020;-51
2021/05/28 04:23:56;;;;;;;11.30;7.07;;;;;;;;;;5075272;28;20521;-57
2021/05/28 04:26:22;;;;;;;10.93;5.97;;;;;;;;;;5075345;28;20484;-53
2021/05/28 04:28:48;;;;;;;17.38;8.90;;;;;;;;;;5075207;28;20028;-52
2021/05/28 04:31:14;;;;;;;44.45;22.38;;;;;;;;;;5074991;28;20046;-59
2021/05/28 04:33:41;;;;;;;24.58;13.40;;;;;;;;;;5075828;28;20044;-58
2021/05/28 04:36:07;;;;;;;13.88;7.40;;;;;;;;;;5075960;28;20047;-58
2021/05/28 04:38:33;;;;;;;12.10;7.25;;;;;;;;;;5075191;28;20112;-58
2021/05/28 04:40:59;;;;;;;10.57;5.72;;;;;;;;;;5074941;28;20021;-57
2021/05/28 04:43:25;;;;;;;8.93;4.20;;;;;;;;;;5074886;28;20024;-58
2021/05/28 04:45:51;;;;;;;4.90;2.50;;;;;;;;;;5056655;28;20476;-57
2021/05/28 04:48:19;;;;;;;7.03;2.50;;;;;;;;;;5075013;28;20495;-58
2021/05/28 04:50:45;;;;;;;6.18;2.88;;;;;;;;;;5074253;28;20032;-57
2021/05/28 04:53:12;;;;;;;5.00;2.55;;;;;;;;;;5074713;28;20037;-58
2021/05/28 04:55:38;;;;;;;11.02;7.20;;;;;;;;;;5074548;28;20028;-58
2021/05/28 04:58:04;;;;;;;18.45;9.10;;;;;;;;;;5074527;28;20031;-58
2021/05/28 05:00:30;;;;;;;10.18;5.68;;;;;;;;;;5074406;28;20490;-58
2021/05/28 05:02:56;;;;;;;14.20;6.55;;;;;;;;;;5073370;28;20024;-53
2021/05/28 05:05:24;;;;;;;14.18;7.57;;;;;;;;;;5073354;28;20032;-59
2021/05/28 05:07:50;;;;;;;3.53;2.30;;;;;;;;;;5073027;28;20063;-57
2021/05/28 05:10:17;;;;;;;4.20;2.22;;;;;;;;;;5073017;28;20028;-59
2021/05/28 05:12:43;;;;;;;9.05;2.78;;;;;;;;;;5074032;28;20033;-56
2021/05/28 05:15:10;;;;;;;4.47;1.38;;;;;;;;;;5074132;28;20146;-56
2021/05/28 05:17:36;;;;;;;7.43;1.75;;;;;;;;;;5074007;28;20039;-57
2021/05/28 05:20:03;;;;;;;4.65;1.48;;;;;;;;;;5074102;28;20016;-56
2021/05/28 05:22:29;;;;;;;2.58;1.63;;;;;;;;;;5073864;28;20040;-56
2021/05/28 05:24:55;;;;;;;5.80;1.65;;;;;;;;;;5074160;28;20491;-56
2021/05/28 05:27:21;;;;;;;4.05;1.25;;;;;;;;;;5073868;28;20101;-57
2021/05/28 05:29:47;;;;;;;4.22;1.40;;;;;;;;;;5073952;28;20044;-57
2021/05/28 05:32:14;;;;;;;4.90;2.10;;;;;;;;;;5073121;28;20115;-56
2021/05/28 05:34:43;;;;;;;6.25;1.98;;;;;;;;;;5074013;28;20055;-59
2021/05/28 05:37:09;;;;;;;8.65;1.40;;;;;;;;;;5073929;28;20024;-60
2021/05/28 05:39:35;;;;;;;5.28;2.00;;;;;;;;;;5073750;28;20047;-57
2021/05/28 05:42:01;;;;;;;2.47;1.67;;;;;;;;;;5073657;28;20029;-56
2021/05/28 05:44:28;;;;;;;3.83;1.88;;;;;;;;;;5073687;28;20438;-57
2021/05/28 05:46:56;;;;;;;7.25;2.55;;;;;;;;;;5073839;28;20369;-56
2021/05/28 05:49:22;;;;;;;11.05;5.63;;;;;;;;;;5073655;28;20020;-54
2021/05/28 05:51:48;;;;;;;8.55;3.85;;;;;;;;;;5073095;28;20045;-47
2021/05/28 05:54:15;;;;;;;17.58;9.85;;;;;;;;;;5073701;28;20430;-47
2021/05/28 05:56:41;;;;;;;17.88;10.07;;;;;;;;;;5073464;28;20107;-47
2021/05/28 05:59:07;;;;;;;8.25;2.88;;;;;;;;;;5073680;28;20040;-50
2021/05/28 06:01:33;;;;;;;14.80;5.45;;;;;;;;;;5073370;28;20031;-52
2021/05/28 06:04:00;;;;;;;9.60;5.40;;;;;;;;;;5073437;28;20024;-49
2021/05/28 06:06:27;;;;;;;9.90;4.20;;;;;;;;;;5073507;28;20036;-47
2021/05/28 06:08:55;;;;;;;8.50;3.80;;;;;;;;;;5073250;28;20020;-56
2021/05/28 06:11:21;;;;;;;12.18;5.57;;;;;;;;;;5073102;28;20032;-47
2021/05/28 06:13:48;;;;;;;11.57;4.70;;;;;;;;;;5073264;28;20385;-48
2021/05/28 06:16:14;;;;;;;8.25;3.25;;;;;;;;;;5073190;28;20534;-57
2021/05/28 06:18:40;;;;;;;6.15;3.03;;;;;;;;;;5073429;28;20024;-48
2021/05/28 06:21:08;;;;;;;15.05;4.32;;;;;;;;;;5073082;28;20028;-48
2021/05/28 06:23:34;;;;;;;13.18;6.18;;;;;;;;;;5073326;28;20033;-55
2021/05/28 06:26:01;;;;;;;30.23;16.70;;;;;;;;;;5055091;28;20040;-49
2021/05/28 06:28:27;;;;;;;16.38;9.20;;;;;;;;;;5073379;28;20349;-47
2021/05/28 06:30:54;;;;;;;9.50;5.40;;;;;;;;;;5072914;28;20059;-51
2021/05/28 06:33:20;;;;;;;9.88;4.95;;;;;;;;;;5073154;28;20033;-50
2021/05/28 06:35:46;;;;;;;25.38;5.45;;;;;;;;;;5073024;28;20021;-47
2021/05/28 06:38:13;;;;;;;11.13;4.10;;;;;;;;;;5073197;28;20051;-48
2021/05/28 06:40:39;;;;;;;5.93;2.78;;;;;;;;;;5073118;28;20019;-48
2021/05/28 06:43:06;;;;;;;8.50;4.50;;;;;;;;;;5075032;28;20036;-53
2021/05/28 06:45:32;;;;;;;11.77;3.35;;;;;;;;;;5077061;28;20474;-56
2021/05/28 06:47:59;;;;;;;7.63;3.47;;;;;;;;;;5076983;28;20476;-56
2021/05/28 06:50:25;;;;;;;6.30;2.70;;;;;;;;;;5076697;28;20099;-51
2021/05/28 06:52:51;;;;;;;7.93;2.55;;;;;;;;;;5076724;28;20040;-55
2021/05/28 06:55:17;;;;;;;6.28;2.55;;;;;;;;;;5076939;28;20025;-56
2021/05/28 06:57:43;;;;;;;11.68;2.80;;;;;;;;;;5076902;28;20024;-54
2021/05/28 07:00:11;;;;;;;8.00;2.05;;;;;;;;;;5076445;28;20040;-47
2021/05/28 07:02:38;;;;;;;13.60;2.20;;;;;;;;;;5076900;28;20386;-47
2021/05/28 07:05:05;;;;;;;7.70;2.05;;;;;;;;;;5076478;28;20456;-54
2021/05/28 07:07:31;;;;;;;13.90;3.28;;;;;;;;;;5076593;28;20528;-51
2021/05/28 07:09:57;;;;;;;22.98;12.70;;;;;;;;;;5076564;28;20024;-55
2021/05/28 07:12:23;;;;;;;11.85;4.53;;;;;;;;;;5076512;28;20028;-61
2021/05/28 07:14:49;;;;;;;30.88;15.00;;;;;;;;;;5076334;28;20073;-54
2021/05/28 07:17:16;;;;;;;16.17;6.30;;;;;;;;;;5076309;28;20540;-54
2021/05/28 07:19:42;;;;;;;58.55;31.30;;;;;;;;;;5076391;28;20388;-49
2021/05/28 07:22:08;;;;;;;55.63;28.10;;;;;;;;;;5076102;28;20056;-56
2021/05/28 07:24:34;;;;;;;30.60;15.32;;;;;;;;;;5076267;28;20369;-56
2021/05/28 07:27:00;;;;;;;33.30;15.27;;;;;;;;;;5076154;28;20143;-58
2021/05/28 07:29:27;;;;;;;20.50;10.63;;;;;;;;;;5076144;28;20088;-57
2021/05/28 07:31:53;;;;;;;43.58;26.92;;;;;;;;;;5075895;28;20472;-57
2021/05/28 07:34:21;;;;;;;62.85;36.63;;;;;;;;;;5075973;28;20024;-56
2021/05/28 07:36:48;;;;;;;59.97;36.15;;;;;;;;;;5075828;28;20025;-57
2021/05/28 07:39:14;;;;;;;23.42;15.38;;;;;;;;;;5075995;28;20082;-56
2021/05/28 07:41:40;;;;;;;32.30;19.60;;;;;;;;;;5075984;28;20021;-57
2021/05/28 07:44:06;;;;;;;27.73;10.60;;;;;;;;;;5075856;28;20078;-61
2021/05/28 07:46:40;;;;;;;59.80;20.75;;;;;;;;;;5075772;28;20078;-60
2021/05/28 07:49:06;;;;;;;22.92;5.70;;;;;;;;;;5075977;28;20052;-61
2021/05/28 07:51:32;;;;;;;29.25;11.70;;;;;;;;;;5075361;28;20075;-61
2021/05/28 07:53:58;;;;;;;7.85;2.60;;;;;;;;;;5075042;28;20036;-62
2021/05/28 07:56:24;;;;;;;27.50;12.50;;;;;;;;;;5075804;28;20025;-61
2021/05/28 07:58:50;;;;;;;22.58;8.90;;;;;;;;;;5075628;28;20099;-60
2021/05/28 08:01:17;;;;;;;9.68;4.35;;;;;;;;;;5075758;28;20074;-62
2021/05/28 08:03:43;;;;;;;8.07;2.92;;;;;;;;;;5075574;28;20035;-53
2021/05/28 08:06:09;;;;;;;10.27;4.22;;;;;;;;;;5075599;28;20376;-61
2021/05/28 08:08:35;;;;;;;8.57;3.58;;;;;;;;;;5057724;28;20040;-61
2021/05/28 08:11:01;;;;;;;7.18;3.67;;;;;;;;;;5075372;28;20074;-60
2021/05/28 08:13:27;;;;;;;11.15;4.20;;;;;;;;;;5075399;28;20104;-62
2021/05/28 08:15:54;;;;;;;6.40;3.33;;;;;;;;;;5075282;28;20027;-61
2021/05/28 08:18:20;;;;;;;6.03;2.65;;;;;;;;;;5075267;28;20484;-60
2021/05/28 08:20:46;;;;;;;7.63;3.58;;;;;;;;;;5075190;28;20028;-52
2021/05/28 08:23:13;;;;;;;11.50;3.22;;;;;;;;;;5075241;28;20072;-62
2021/05/28 08:25:39;;;;;;;32.30;14.45;;;;;;;;;;5075163;28;20028;-61
2021/05/28 08:28:05;;;;;;;20.48;10.05;;;;;;;;;;5075196;28;20028;-59
2021/05/28 08:30:31;;;;;;;10.68;6.05;;;;;;;;;;5074991;28;20110;-61
2021/05/28 08:32:57;;;;;;;11.73;5.65;;;;;;;;;;5075191;28;20105;-62
2021/05/28 08:35:23;;;;;;;14.02;5.97;;;;;;;;;;5074881;28;20025;-61
2021/05/28 08:37:49;;;;;;;9.25;4.85;;;;;;;;;;5074933;28;20029;-63
2021/05/28 08:40:17;;;;;;;7.80;5.28;;;;;;;;;;5075230;28;20028;-63
2021/05/28 08:42:44;;;;;;;10.60;3.05;;;;;;;;;;5074949;28;20109;-63
2021/05/28 08:45:10;;;;;;;8.32;3.53;;;;;;;;;;5074774;28;20024;-62
2021/05/28 08:47:39;;;;;;;10.50;3.45;;;;;;;;;;5074725;28;20031;-61
2021/05/28 08:50:06;;;;;;;9.13;4.20;;;;;;;;;;5074489;28;20032;-64
2021/05/28 08:52:32;;;;;;;11.15;6.50;;;;;;;;;;5074359;28;20056;-63
2021/05/28 08:54:58;;;;;;;13.02;9.40;;;;;;;;;;5074675;28;20099;-63
2021/05/28 08:57:25;;;;;;;19.98;11.27;;;;;;;;;;5074606;28;20028;-56
2021/05/28 08:59:53;;;;;;;31.40;15.88;;;;;;;;;;5074586;28;20021;-57
2021/05/28 09:02:39;;;;;;;24.42;11.95;;;;;;;;;;5074959;28;20124;-52
2021/05/28 09:05:06;;;;;;;17.38;8.40;;;;;;;;;;5074923;28;20158;-48
2021/05/28 09:07:32;;;;;;;8.18;5.30;;;;;;;;;;5074912;28;20102;-47
2021/05/28 09:09:58;;;;;;;10.43;6.40;;;;;;;;;;5074555;28;20037;-57
2021/05/28 09:12:27;;;;;;;6.30;4.20;;;;;;;;;;5074397;28;20115;-47
2021/05/28 09:14:54;;;;;;;8.77;4.25;;;;;;;;;;5074638;28;20494;-47
2021/05/28 09:17:20;;;;;;;3.88;2.45;;;;;;;;;;5074626;28;20060;-47
2021/05/28 09:19:57;;;;;;;9.18;3.72;;;;;;;;;;5074309;28;20472;-47
2021/05/28 09:22:32;;;;;;;4.45;2.00;;;;;;;;;;5073996;28;20051;-47
2021/05/28 09:24:58;;;;;;;5.13;2.38;;;;;;;;;;5074166;28;20087;-48
2021/05/28 09:27:31;;;;;;;6.30;2.40;;;;;;;;;;5074037;28;20128;-47
2021/05/28 09:30:11;;;;;;;4.53;2.60;;;;;;;;;;5074091;28;20031;-47
2021/05/28 09:32:43;;;;;;;4.77;2.10;;;;;;;;;;5073849;28;20032;-47
2021/05/28 09:35:10;;;;;;;15.48;9.63;;;;;;;;;;5074052;28;20055;-56
2021/05/28 09:37:41;;;;;;;33.72;21.60;;;;;;;;;;5073871;28;20086;-49
2021/05/28 09:40:08;;;;;;;56.15;31.60;;;;;;;;;;5073828;28;20020;-51
2021/05/28 09:42:52;;;;;;;39.25;21.80;;;;;;;;;;5073848;28;20384;-60
2021/05/28 09:45:21;;;;;;;14.38;9.02;;;;;;;;;;5073638;28;20082;-54
2021/05/28 09:47:47;;;;;;;20.92;9.05;;;;;;;;;;5073635;28;20027;-49
2021/05/28 09:50:14;;;;;;;24.02;11.27;;;;;;;;;;5073344;28;20043;-57
2021/05/28 09:52:40;;;;;;;4.75;2.88;;;;;;;;;;5073504;28;20550;-56
2021/05/28 09:55:17;;;;;;;16.27;5.25;;;;;;;;;;5073487;28;20070;-63
2021/05/28 09:57:44;;;;;;;4.82;1.83;;;;;;;;;;5073779;28;20020;-55
2021/05/28 10:00:25;;;;;;;24.70;9.93;;;;;;;;;;5073146;28;20021;-62
2021/05/28 10:03:09;;;;;;;41.47;22.40;;;;;;;;;;5072597;28;20033;-57
2021/05/28 10:05:37;;;;;;;116.68;72.18;;;;;;;;;;5073335;28;20108;-58
2021/05/28 10:08:04;;;;;;;86.38;47.72;;;;;;;;;;5073305;28;20024;-65
2021/05/28 10:10:30;;;;;;;67.53;42.80;;;;;;;;;;5073433;28;20028;-64
2021/05/28 10:12:56;;;;;;;49.40;22.80;;;;;;;;;;5073192;28;20051;-48
2021/05/28 10:15:23;;;;;;;33.25;19.30;;;;;;;;;;5055183;28;20024;-61
2021/05/28 10:17:50;;;;;;;23.85;7.97;;;;;;;;;;5072913;28;20032;-51
2021/05/28 10:20:17;;;;;;;12.13;3.15;;;;;;;;;;5073031;28;20104;-50
2021/05/28 10:22:43;;;;;;;22.30;11.68;;;;;;;;;;5073396;28;20037;-61
2021/05/28 10:25:09;;;;;;;7.80;4.95;;;;;;;;;;5073516;28;20020;-53
2021/05/28 10:27:35;;;;;;;52.13;32.08;;;;;;;;;;5073176;28;20029;-60
2021/05/28 10:30:12;;;;;;;10.05;5.13;;;;;;;;;;5073635;28;20048;-63
2021/05/28 10:32:38;;;;;;;37.38;18.35;;;;;;;;;;5072781;28;20031;-60
2021/05/28 10:35:06;;;;;;;17.75;12.73;;;;;;;;;;5072953;28;20032;-65
2021/05/28 10:37:33;;;;;;;14.05;6.55;;;;;;;;;;5073148;28;20052;-64
2021/05/28 10:40:01;;;;;;;10.73;4.43;;;;;;;;;;5073068;28;20024;-60
2021/05/28 10:42:27;;;;;;;20.55;11.32;;;;;;;;;;5073070;28;20515;-65
2021/05/28 10:44:54;;;;;;;13.95;6.15;;;;;;;;;;5072981;28;20021;-61
2021/05/28 10:47:20;;;;;;;13.27;6.25;;;;;;;;;;5073250;28;20086;-63
2021/05/28 10:49:52;;;;;;;47.13;31.15;;;;;;;;;;5073172;28;20048;-61
2021/05/28 10:52:31;;;;;;;33.85;19.05;;;;;;;;;;5072533;28;20415;-61
2021/05/28 10:54:59;;;;;;;13.10;3.08;;;;;;;;;;5073334;28;20027;-61
2021/05/28 10:57:30;;;;;;;22.67;13.75;;;;;;;;;;5072723;28;20028;-60
2021/05/28 10:59:56;;;;;;;;;;;;;;;;;;5073161;28;20025;-60
2021/05/28 11:02:40;;;;;;;15.27;7.43;;;;;;;;;;5072754;28;19915;-56
2021/05/28 11:05:07;;;;;;;31.98;23.33;;;;;;;;;;5072762;28;20032;-60
2021/05/28 11:07:34;;;;;;;24.63;13.15;;;;;;;;;;5073140;28;20025;-60
2021/05/28 11:10:16;;;;;;;23.83;9.88;;;;;;;;;;5072810;28;20029;-59
2021/05/28 11:12:42;;;;;;;35.55;21.02;;;;;;;;;;5072550;28;20048;-61
2021/05/28 11:15:10;;;;;;;10.85;3.55;;;;;;;;;;5072698;28;20020;-61
2021/05/28 11:17:55;;;;;;;30.35;11.02;;;;;;;;;;5072797;28;20032;-62
2021/05/28 11:20:25;;;;;;;82.13;38.88;;;;;;;;;;5071330;28;20479;-65
2021/05/28 11:22:52;;;;;;;21.13;13.30;;;;;;;;;;5072014;28;20103;-65
2021/05/28 11:25:19;;;;;;;28.85;16.00;;;;;;;;;;5072536;28;20021;-66
2021/05/28 11:27:48;;;;;;;17.83;10.50;;;;;;;;;;5072439;28;20025;-66
2021/05/28 11:30:17;;;;;;;22.33;11.68;;;;;;;;;;5074528;28;20514;-66
2021/05/28 11:32:43;;;;;;;39.42;21.92;;;;;;;;;;5076070;28;20041;-66
2021/05/28 11:35:11;;;;;;;12.70;4.00;;;;;;;;;;5076229;28;20388;-66
2021/05/28 11:37:42;;;;;;;11.18;5.72;;;;;;;;;;5076217;28;20066;-66
2021/05/28 11:40:29;;;;;;;7.87;3.10;;;;;;;;;;5074690;28;20025;-66
2021/05/28 11:43:12;;;;;;;26.95;15.43;;;;;;;;;;5073700;28;20028;-67
2021/05/28 11:45:40;;;;;;;25.90;13.20;;;;;;;;;;5075129;28;20020;-54
2021/05/28 11:48:11;;;;;;;67.63;40.85;;;;;;;;;;5075855;28;20032;-61
2021/05/28 11:50:41;;;;;;;19.48;14.25;;;;;;;;;;5075514;28;20041;-60
2021/05/28 11:53:11;;;;;;;8.63;6.43;;;;;;;;;;5075483;28;20040;-54
2021/05/28 11:55:50;;;;;;;10.15;5.78;;;;;;;;;;5075845;28;20020;-52
2021/05/28 11:58:17;;;;;;;9.18;4.78;;;;;;;;;;5075659;28;20070;-67
2021/05/28 12:00:44;;;;;;;17.25;7.60;;;;;;;;;;5075463;28;20145;-65
2021/05/28 12:03:10;;;;;;;99.35;59.72;;;;;;;;;;5075600;28;20021;-56
2021/05/28 12:05:38;;;;;;;33.50;22.38;;;;;;;;;;5075501;28;20052;-63
2021/05/28 12:08:24;;;;;;;16.58;9.95;;;;;;;;;;5075437;28;20033;-58
2021/05/28 12:10:58;;;;;;;10.23;6.45;;;;;;;;;;5075380;28;20052;-52
2021/05/28 12:13:24;;;;;;;18.45;5.80;;;;;;;;;;5075486;28;20093;-53
2021/05/28 12:15:55;;;;;;;14.10;7.18;;;;;;;;;;5075200;28;20025;-57
2021/05/28 12:18:31;;;;;;;9.90;6.37;;;;;;;;;;5075323;28;20081;-52
2021/05/28 12:21:03;;;;;;;16.35;9.82;;;;;;;;;;5075375;28;20349;-53
2021/05/28 12:23:36;;;;;;;17.65;9.60;;;;;;;;;;5075103;28;20032;-62
2021/05/28 12:26:25;;;;;;;10.05;5.78;;;;;;;;;;5074989;28;20487;-57
2021/05/28 12:28:54;;;;;;;35.38;22.10;;;;;;;;;;4993755;28;20510;-56
2021/05/28 12:31:22;;;;;;;20.35;10.27;;;;;;;;;;4993433;28;20038;-56
2021/05/28 12:33:52;;;;;;;18.17;9.15;;;;;;;;;;4993661;28;20042;-57
2021/05/28 12:36:24;;;;;;;37.47;21.77;;;;;;;;;;4993473;28;20027;-58
2021/05/28 12:38:51;;;;;;;15.45;6.50;;;;;;;;;;4993480;28;20070;-57
2021/05/28 12:41:21;;;;;;;12.65;9.10;;;;;;;;;;4993289;28;20470;-59
2021/05/28 12:43:49;;;;;;;6.82;4.10;;;;;;;;;;4993510;28;20038;-57
2021/05/28 12:46:18;;;;;;;19.40;10.00;;;;;;;;;;4993382;28;20117;-55
2021/05/28 12:48:46;;;;;;;18.75;7.55;;;;;;;;;;4993208;28;20122;-56
2021/05/28 12:51:13;;;;;;;19.85;11.57;;;;;;;;;;4992924;28;20516;-54
2021/05/28 12:53:40;;;;;;;26.83;14.07;;;;;;;;;;4993036;28;20081;-58
2021/05/28 12:56:09;;;;;;;22.95;12.95;;;;;;;;;;4993256;28;20031;-61
2021/05/28 12:58:40;;;;;;;22.80;12.65;;;;;;;;;;4993198;28;21917;-64
2021/05/28 13:01:06;;;;;;;;;;;;;;;;;;4993413;28;20094;-49
2021/05/28 13:03:36;;;;;;;73.72;47.42;;;;;;;;;;4993137;28;20354;-58
2021/05/28 13:06:24;;;;;;;19.10;10.38;;;;;;;;;;5037758;28;20037;-70
2021/05/28 13:08:51;;;;;;;71.88;47.30;;;;;;;;;;5056239;28;20395;-68
2021/05/28 13:11:18;;;;;;;13.25;8.48;;;;;;;;;;5074169;28;20024;-65
2021/05/28 13:13:48;;;;;;;4.40;3.30;;;;;;;;;;5074021;28;20430;-67
2021/05/28 13:16:14;;;;;;;40.10;19.70;;;;;;;;;;5074004;28;20051;-70
2021/05/28 13:18:44;;;;;;;11.30;5.05;;;;;;;;;;5074298;28;20050;-67
2021/05/28 13:21:26;;;;;;;12.20;6.70;;;;;;;;;;5073844;28;20463;-68
2021/05/28 13:23:53;;;;;;;13.25;5.10;;;;;;;;;;5073959;28;20448;-69
2021/05/28 13:26:19;;;;;;;15.40;8.65;;;;;;;;;;5073878;28;20032;-67
2021/05/28 13:28:46;;;;;;;15.52;11.00;;;;;;;;;;5073774;28;20067;-68
2021/05/28 13:31:14;;;;;;;9.85;6.55;;;;;;;;;;5055709;28;20031;-67
2021/05/28 13:33:41;;;;;;;12.90;4.55;;;;;;;;;;5073926;28;20029;-67
2021/05/28 13:36:07;;;;;;;17.27;6.93;;;;;;;;;;5073765;28;20029;-67
2021/05/28 13:38:34;;;;;;;13.38;3.05;;;;;;;;;;5073857;28;20024;-66
2021/05/28 13:41:08;;;;;;;5.38;1.88;;;;;;;;;;5073836;28;20392;-71
2021/05/28 13:43:34;;;;;;;26.33;13.88;;;;;;;;;;5073702;28;20025;-68
2021/05/28 13:46:01;;;;;;;10.65;5.35;;;;;;;;;;5073803;28;20021;-72
2021/05/28 13:48:27;;;;;;;4.82;1.77;;;;;;;;;;5073612;28;20016;-69
2021/05/28 13:50:53;;;;;;;10.45;5.13;;;;;;;;;;5073165;28;20032;-68
2021/05/28 13:53:19;;;;;;;13.25;6.40;;;;;;;;;;5072966;28;20044;-66
2021/05/28 13:55:47;;;;;;;9.90;4.72;;;;;;;;;;5074003;28;20017;-48
2021/05/28 13:58:13;;;;;;;18.15;11.80;;;;;;;;;;5073428;28;20035;-54
2021/05/28 14:00:40;;;;;;;37.97;26.30;;;;;;;;;;5073510;28;20349;-50
2021/05/28 14:03:06;;;;;;;13.52;6.53;;;;;;;;;;5073339;28;20025;-52
2021/05/28 14:05:32;;;;;;;41.75;27.45;;;;;;;;;;5073317;28;20024;-63
2021/05/28 14:08:03;;;;;;;21.05;14.20;;;;;;;;;;5073299;28;20028;-62
2021/05/28 14:10:29;;;;;;;14.20;8.93;;;;;;;;;;5055782;28;20028;-64
2021/05/28 14:12:56;;;;;;;89.07;52.38;;;;;;;;;;5073030;28;20281;-61
2021/05/28 14:15:25;;;;;;;35.25;22.20;;;;;;;;;;5073293;28;20035;-65
2021/05/28 14:17:51;;;;;;;23.35;13.48;;;;;;;;;;5073243;28;20504;-64
2021/05/28 14:20:25;;;;;;;17.30;6.85;;;;;;;;;;5073097;28;20021;-59
2021/05/28 14:22:51;;;;;;;32.20;15.32;;;;;;;;;;5073307;28;20031;-60
2021/05/28 14:25:18;;;;;;;33.00;16.70;;;;;;;;;;5073225;28;20403;-60
2021/05/28 14:27:45;;;;;;;25.70;14.95;;;;;;;;;;5073136;28;20039;-49
2021/05/28 14:30:14;;;;;;;15.23;8.27;;;;;;;;;;5073184;28;20518;-58
2021/05/28 14:32:41;;;;;;;29.95;19.63;;;;;;;;;;5054940;28;20033;-51